createdAt,value
2018-08-17T00:02:17.911Z,3.60
2018-08-17T00:04:46.072Z,3.57
2018-08-17T00:07:14.246Z,3.20
2018-08-17T00:09:42.419Z,3.70
2018-08-17T00:12:10.562Z,3.20
2018-08-17T00:14:38.729Z,3.10
2018-08-17T00:17:06.836Z,3.50
2018-08-17T00:19:34.983Z,2.97
2018-08-17T00:22:03.312Z,3.40
2018-08-17T00:24:31.503Z,3.40
2018-08-17T00:26:59.658Z,3.70
2018-08-17T00:29:27.869Z,3.77
2018-08-17T00:31:56.098Z,3.43
2018-08-17T00:34:24.338Z,3.03
2018-08-17T00:36:52.500Z,3.23
2018-08-17T00:39:20.719Z,3.00
2018-08-17T00:41:48.911Z,3.20
2018-08-17T00:44:17.098Z,3.30
2018-08-17T00:46:45.362Z,3.20
2018-08-17T00:49:13.543Z,3.40
2018-08-17T00:51:41.705Z,3.07
2018-08-17T00:54:09.924Z,3.30
2018-08-17T00:56:38.135Z,3.23
2018-08-17T00:59:06.321Z,3.17
2018-08-17T01:01:34.507Z,3.13
2018-08-17T01:04:02.793Z,3.13
2018-08-17T01:06:30.991Z,3.47
2018-08-17T01:09:00.033Z,3.00
2018-08-17T01:11:28.233Z,4.07
2018-08-17T01:13:56.442Z,3.37
2018-08-17T01:16:24.799Z,3.43
2018-08-17T01:18:53.029Z,3.50
2018-08-17T01:21:21.223Z,3.50
2018-08-17T01:23:49.419Z,2.70
2018-08-17T01:26:17.725Z,3.53
2018-08-17T01:28:45.885Z,3.10
2018-08-17T01:31:14.057Z,3.27
2018-08-17T01:33:42.211Z,3.00
2018-08-17T01:36:10.382Z,3.07
2018-08-17T01:38:38.580Z,3.50
2018-08-17T01:41:06.758Z,3.20
2018-08-17T01:43:34.944Z,3.40
2018-08-17T01:46:03.140Z,3.47
2018-08-17T01:48:31.479Z,3.10
2018-08-17T01:50:59.658Z,3.10
2018-08-17T01:53:27.875Z,3.47
2018-08-17T01:55:56.021Z,3.27
2018-08-17T01:58:24.171Z,3.23
2018-08-17T02:00:53.692Z,3.30
2018-08-17T02:03:21.913Z,3.60
2018-08-17T02:05:50.101Z,3.40
2018-08-17T02:08:18.352Z,3.57
2018-08-17T02:10:46.569Z,3.57
2018-08-17T02:13:14.737Z,3.20
2018-08-17T02:15:42.942Z,4.10
2018-08-17T02:18:11.091Z,3.60
2018-08-17T02:20:39.268Z,4.23
2018-08-17T02:23:07.422Z,4.10
2018-08-17T02:25:35.548Z,3.70
2018-08-17T02:28:03.706Z,4.23
2018-08-17T02:30:31.949Z,4.33
2018-08-17T02:33:00.153Z,3.67
2018-08-17T02:35:28.323Z,4.30
2018-08-17T02:37:56.499Z,4.40
2018-08-17T02:40:24.707Z,4.53
2018-08-17T02:42:52.870Z,4.00
2018-08-17T02:45:21.084Z,4.17
2018-08-17T02:47:49.301Z,4.07
2018-08-17T02:50:17.492Z,4.40
2018-08-17T02:52:45.679Z,4.43
2018-08-17T02:55:13.877Z,4.63
2018-08-17T02:57:42.062Z,4.07
2018-08-17T03:00:10.213Z,4.77
2018-08-17T03:02:38.366Z,4.70
2018-08-17T03:05:06.507Z,3.70
2018-08-17T03:07:34.678Z,4.00
2018-08-17T03:10:02.871Z,4.20
2018-08-17T03:12:31.012Z,4.43
2018-08-17T03:14:59.238Z,4.20
2018-08-17T03:17:27.402Z,4.10
2018-08-17T03:19:55.545Z,3.63
2018-08-17T03:22:23.720Z,4.00
2018-08-17T03:24:51.866Z,3.83
2018-08-17T03:27:20.004Z,4.10
2018-08-17T03:29:48.141Z,4.23
2018-08-17T03:32:16.316Z,3.67
2018-08-17T03:34:44.540Z,4.20
2018-08-17T03:37:12.769Z,4.27
2018-08-17T03:39:40.953Z,3.77
2018-08-17T03:42:09.110Z,4.40
2018-08-17T03:44:37.283Z,4.40
2018-08-17T03:47:05.525Z,3.53
2018-08-17T03:49:33.631Z,4.50
2018-08-17T03:52:01.824Z,4.30
2018-08-17T03:54:29.956Z,4.33
2018-08-17T03:56:58.126Z,3.83
2018-08-17T03:59:26.254Z,3.83
2018-08-17T04:01:54.400Z,4.23
2018-08-17T04:04:22.566Z,4.27
2018-08-17T04:06:50.680Z,4.23
2018-08-17T04:09:18.832Z,4.50
2018-08-17T04:11:47.044Z,4.07
2018-08-17T04:14:15.222Z,4.73
2018-08-17T04:16:43.309Z,5.80
2018-08-17T04:19:11.469Z,5.40
2018-08-17T04:21:39.705Z,5.10
2018-08-17T04:24:07.867Z,5.37
2018-08-17T04:26:36.138Z,5.10
2018-08-17T04:29:04.295Z,5.13
2018-08-17T04:31:32.389Z,5.80
2018-08-17T04:34:00.590Z,5.60
2018-08-17T04:36:28.823Z,5.77
2018-08-17T04:38:56.905Z,5.40
2018-08-17T04:41:25.089Z,5.90
2018-08-17T04:43:53.288Z,5.63
2018-08-17T04:46:21.535Z,5.57
2018-08-17T04:48:49.787Z,5.30
2018-08-17T04:51:17.968Z,4.90
2018-08-17T04:53:46.160Z,4.70
2018-08-17T04:56:14.380Z,5.40
2018-08-17T04:58:42.567Z,4.90
2018-08-17T05:01:10.703Z,4.80
2018-08-17T05:03:38.907Z,4.20
2018-08-17T05:06:07.209Z,4.70
2018-08-17T05:08:35.411Z,4.43
2018-08-17T05:11:03.732Z,4.20
2018-08-17T05:13:31.980Z,4.37
2018-08-17T05:16:00.265Z,4.20
2018-08-17T05:18:28.396Z,3.73
2018-08-17T05:20:56.843Z,4.80
2018-08-17T05:23:25.013Z,5.27
2018-08-17T05:25:53.222Z,4.27
2018-08-17T05:28:21.402Z,4.37
2018-08-17T05:30:49.620Z,4.63
2018-08-17T05:33:17.742Z,4.27
2018-08-17T05:35:55.956Z,4.30
2018-08-17T05:38:24.205Z,3.40
2018-08-17T05:40:52.446Z,3.70
2018-08-17T05:43:20.654Z,4.07
2018-08-17T05:45:48.793Z,3.73
2018-08-17T05:48:17.035Z,3.77
2018-08-17T05:50:45.291Z,3.27
2018-08-17T05:53:13.637Z,3.13
2018-08-17T05:55:41.907Z,3.50
2018-08-17T05:58:10.175Z,3.00
2018-08-17T06:00:38.707Z,3.43
2018-08-17T06:03:07.441Z,3.00
2018-08-17T06:05:35.720Z,3.35
2018-08-17T06:08:03.865Z,2.92
2018-08-17T06:10:32.052Z,3.05
2018-08-17T06:13:00.214Z,2.90
2018-08-17T06:15:28.375Z,3.15
2018-08-17T06:17:56.545Z,3.12
2018-08-17T06:20:24.709Z,2.80
2018-08-17T06:22:52.845Z,2.55
2018-08-17T06:25:20.974Z,2.60
2018-08-17T06:27:49.104Z,2.40
2018-08-17T06:30:17.337Z,2.72
2018-08-17T06:32:45.526Z,2.70
2018-08-17T06:35:14.427Z,2.42
2018-08-17T06:37:43.363Z,2.60
2018-08-17T06:40:11.619Z,2.70
2018-08-17T06:42:39.797Z,2.65
2018-08-17T06:45:08.679Z,2.70
2018-08-17T06:47:36.834Z,2.35
2018-08-17T06:50:05.798Z,2.77
2018-08-17T06:52:33.938Z,2.40
2018-08-17T06:55:02.088Z,2.80
2018-08-17T06:57:30.282Z,2.72
2018-08-17T06:59:58.430Z,2.85
2018-08-17T07:02:26.585Z,2.70
2018-08-17T07:04:54.723Z,2.67
2018-08-17T07:07:22.898Z,2.70
2018-08-17T07:09:51.044Z,2.58
2018-08-17T07:12:19.162Z,2.60
2018-08-17T07:14:47.257Z,2.67
2018-08-17T07:17:16.028Z,2.45
2018-08-17T07:19:44.196Z,2.83
2018-08-17T07:22:12.418Z,2.50
2018-08-17T07:24:40.605Z,2.85
2018-08-17T07:27:08.822Z,2.60
2018-08-17T07:29:37.002Z,2.37
2018-08-17T07:32:05.180Z,2.40
2018-08-17T07:34:33.415Z,2.67
2018-08-17T07:37:01.602Z,2.27
2018-08-17T07:39:29.738Z,2.35
2018-08-17T07:41:57.961Z,2.42
2018-08-17T07:44:26.076Z,2.50
2018-08-17T07:46:54.205Z,2.10
2018-08-17T07:49:22.360Z,2.27
2018-08-17T07:51:50.512Z,2.20
2018-08-17T07:54:18.929Z,2.00
2018-08-17T07:56:47.133Z,2.17
2018-08-17T07:59:15.299Z,2.20
2018-08-17T08:01:43.522Z,2.17
2018-08-17T08:04:11.700Z,2.25
2018-08-17T08:06:39.893Z,2.17
2018-08-17T08:09:09.580Z,2.25
2018-08-17T08:11:37.744Z,2.40
2018-08-17T08:14:05.916Z,2.22
2018-08-17T08:16:34.074Z,1.95
2018-08-17T08:19:02.635Z,2.12
2018-08-17T08:21:30.753Z,2.52
2018-08-17T08:23:58.864Z,2.20
2018-08-17T08:26:27.012Z,1.72
2018-08-17T08:28:55.156Z,1.90
2018-08-17T08:31:23.276Z,1.92
2018-08-17T08:33:51.474Z,2.20
2018-08-17T08:36:19.672Z,1.90
2018-08-17T08:38:47.794Z,2.42
2018-08-17T08:41:15.982Z,2.20
2018-08-17T08:43:44.275Z,2.83
2018-08-17T08:46:12.877Z,2.33
2018-08-17T08:48:41.005Z,2.50
2018-08-17T08:51:09.201Z,2.55
2018-08-17T08:53:37.335Z,2.77
2018-08-17T08:56:05.592Z,2.30
2018-08-17T08:58:33.662Z,2.67
2018-08-17T09:01:01.849Z,2.27
2018-08-17T09:03:30.277Z,2.00
2018-08-17T09:05:58.478Z,2.58
2018-08-17T09:08:26.598Z,2.27
2018-08-17T09:10:54.847Z,2.20
2018-08-17T09:13:23.022Z,2.02
2018-08-17T09:15:51.204Z,2.43
2018-08-17T09:18:19.341Z,2.00
2018-08-17T09:20:47.651Z,2.07
2018-08-17T09:23:15.736Z,2.00
2018-08-17T09:25:43.875Z,1.80
2018-08-17T09:28:12.067Z,1.70
2018-08-17T09:30:40.196Z,1.90
2018-08-17T09:33:08.403Z,1.80
2018-08-17T09:35:36.598Z,2.00
2018-08-17T09:38:04.794Z,1.80
2018-08-17T09:40:33.008Z,1.90
2018-08-17T09:43:01.218Z,1.80
2018-08-17T09:45:29.357Z,1.50
2018-08-17T09:47:57.553Z,2.00
2018-08-17T09:50:25.710Z,1.97
2018-08-17T09:52:54.412Z,1.90
2018-08-17T09:55:22.622Z,2.10
2018-08-17T09:57:50.757Z,1.80
2018-08-17T10:00:18.994Z,1.90
2018-08-17T10:02:52.642Z,1.77
2018-08-17T10:05:26.271Z,2.10
2018-08-17T10:07:59.668Z,1.90
2018-08-17T10:10:27.858Z,2.03
2018-08-17T10:12:55.983Z,1.97
2018-08-17T10:15:24.155Z,1.63
2018-08-17T10:17:52.229Z,2.03
2018-08-17T10:20:22.443Z,1.93
2018-08-17T10:22:50.653Z,2.10
2018-08-17T10:25:25.858Z,1.90
2018-08-17T10:27:55.219Z,1.90
2018-08-17T10:30:23.772Z,1.90
2018-08-17T10:33:00.741Z,1.93
2018-08-17T10:35:36.409Z,1.90
2018-08-17T10:38:05.913Z,2.20
2018-08-17T10:40:34.112Z,1.83
2018-08-17T10:43:02.772Z,2.40
2018-08-17T10:45:31.539Z,1.87
2018-08-17T10:47:59.937Z,2.10
2018-08-17T10:50:30.474Z,1.90
2018-08-17T10:53:00.709Z,1.87
2018-08-17T10:55:38.023Z,2.03
2018-08-17T10:58:06.577Z,1.93
2018-08-17T11:00:34.749Z,1.90
2018-08-17T11:03:03.546Z,1.93
2018-08-17T11:05:31.751Z,2.27
2018-08-17T11:07:59.927Z,2.20
2018-08-17T11:10:28.376Z,2.10
2018-08-17T11:12:56.576Z,1.80
2018-08-17T11:15:24.755Z,1.90
2018-08-17T11:17:52.929Z,1.97
2018-08-17T11:20:21.977Z,2.60
2018-08-17T11:22:50.177Z,2.03
2018-08-17T11:25:18.330Z,2.33
2018-08-17T11:27:47.757Z,1.90
2018-08-17T11:30:15.932Z,2.13
2018-08-17T11:32:44.139Z,2.10
2018-08-17T11:35:12.385Z,1.90
2018-08-17T11:37:41.198Z,2.10
2018-08-17T11:40:09.971Z,2.00
2018-08-17T11:42:42.782Z,2.20
2018-08-17T11:45:12.834Z,2.23
2018-08-17T11:47:41.977Z,2.20
2018-08-17T11:50:11.353Z,2.10
2018-08-17T11:52:45.146Z,1.90
2018-08-17T11:55:13.263Z,2.20
2018-08-17T11:57:41.445Z,2.10
2018-08-17T12:00:09.648Z,2.20
2018-08-17T12:02:37.826Z,1.90
2018-08-17T12:05:06.062Z,2.17
2018-08-17T12:07:34.230Z,2.00
2018-08-17T12:10:03.321Z,2.07
2018-08-17T12:12:33.237Z,2.10
2018-08-17T12:15:01.878Z,1.83
2018-08-17T12:17:30.217Z,2.00
2018-08-17T12:19:58.341Z,2.17
2018-08-17T12:22:26.565Z,1.93
2018-08-17T12:24:54.674Z,2.10
2018-08-17T12:27:22.863Z,2.27
2018-08-17T12:29:51.053Z,1.90
2018-08-17T12:32:19.426Z,2.37
2018-08-17T12:34:47.587Z,1.90
2018-08-17T12:37:15.770Z,1.80
2018-08-17T12:39:43.925Z,2.20
2018-08-17T12:42:12.081Z,2.33
2018-08-17T12:44:40.395Z,2.07
2018-08-17T12:47:08.543Z,1.97
2018-08-17T12:49:36.755Z,2.10
2018-08-17T12:52:04.921Z,2.00
2018-08-17T12:54:34.235Z,2.33
2018-08-17T12:57:03.540Z,2.10
2018-08-17T12:59:32.512Z,2.30
2018-08-17T13:02:00.725Z,2.10
2018-08-17T13:04:29.280Z,2.00
2018-08-17T13:06:58.031Z,2.60
2018-08-17T13:09:26.268Z,2.00
2018-08-17T13:12:00.397Z,2.40
2018-08-17T13:14:28.944Z,2.30
2018-08-17T13:16:58.961Z,2.30
2018-08-17T13:19:27.129Z,2.03
2018-08-17T13:21:55.268Z,2.30
2018-08-17T13:24:23.481Z,2.00
2018-08-17T13:26:51.648Z,2.40
2018-08-17T13:29:20.148Z,2.30
2018-08-17T13:31:48.460Z,2.10
2018-08-17T13:34:17.579Z,2.70
2018-08-17T13:36:45.764Z,2.00
2018-08-17T13:39:13.940Z,2.27
2018-08-17T13:41:42.140Z,1.97
2018-08-17T13:44:11.518Z,2.33
2018-08-17T13:46:39.713Z,2.27
2018-08-17T13:49:07.915Z,1.97
2018-08-17T13:51:36.091Z,2.23
2018-08-17T13:54:04.339Z,2.13
2018-08-17T13:56:32.521Z,1.90
2018-08-17T13:59:00.677Z,2.10
2018-08-17T14:01:28.846Z,2.20
2018-08-17T14:03:57.021Z,2.37
2018-08-17T14:06:25.186Z,1.90
2018-08-17T14:08:53.392Z,2.40
2018-08-17T14:11:22.374Z,1.93
2018-08-17T14:13:50.569Z,2.30
2018-08-17T14:16:18.755Z,2.30
2018-08-17T14:18:46.955Z,2.10
2018-08-17T14:21:15.091Z,1.97
2018-08-17T14:23:43.232Z,2.20
2018-08-17T14:26:11.520Z,2.20
2018-08-17T14:28:39.580Z,2.03
2018-08-17T14:31:07.772Z,2.20
2018-08-17T14:33:36.197Z,2.13
2018-08-17T14:36:05.249Z,2.23
2018-08-17T14:38:34.528Z,2.10
2018-08-17T14:41:03.496Z,2.20
2018-08-17T14:43:32.014Z,2.10
2018-08-17T14:46:00.124Z,2.20
2018-08-17T14:48:28.363Z,1.73
2018-08-17T14:50:56.576Z,1.93
2018-08-17T14:53:24.986Z,2.00
2018-08-17T14:55:53.213Z,2.20
2018-08-17T14:58:21.340Z,2.10
2018-08-17T15:00:49.506Z,1.83
2018-08-17T15:03:17.691Z,2.10
2018-08-17T15:05:46.470Z,1.97
2018-08-17T15:08:14.567Z,2.10
2018-08-17T15:10:42.781Z,1.93
2018-08-17T15:13:10.905Z,2.03
2018-08-17T15:15:39.582Z,2.13
2018-08-17T15:18:07.752Z,2.00
2018-08-17T15:20:35.946Z,1.97
2018-08-17T15:23:04.122Z,2.00
2018-08-17T15:25:32.276Z,2.10
2018-08-17T15:28:00.400Z,2.20
2018-08-17T15:30:28.548Z,2.23
2018-08-17T15:32:56.679Z,1.90
2018-08-17T15:35:24.810Z,2.20
2018-08-17T15:37:52.936Z,2.20
2018-08-17T15:40:21.014Z,2.70
2018-08-17T15:42:49.201Z,2.30
2018-08-17T15:45:19.777Z,2.00
2018-08-17T15:47:47.965Z,2.30
2018-08-17T15:50:17.526Z,2.00
2018-08-17T15:52:45.689Z,1.93
2018-08-17T15:55:14.231Z,2.57
2018-08-17T15:57:42.494Z,2.40
2018-08-17T16:00:13.323Z,2.30
2018-08-17T16:02:41.561Z,2.00
2018-08-17T16:05:09.705Z,2.20
2018-08-17T16:07:37.898Z,2.20
2018-08-17T16:10:06.865Z,2.33
2018-08-17T16:12:35.181Z,2.20
2018-08-17T16:15:03.343Z,2.10
2018-08-17T16:17:31.537Z,2.00
2018-08-17T16:19:59.684Z,2.10
2018-08-17T16:22:27.809Z,2.10
2018-08-17T16:24:55.952Z,2.17
2018-08-17T16:27:24.106Z,2.10
2018-08-17T16:29:52.256Z,2.40
2018-08-17T16:32:20.702Z,1.97
2018-08-17T16:34:48.841Z,1.97
2018-08-17T16:37:16.957Z,2.00
2018-08-17T16:39:50.499Z,1.97
2018-08-17T16:42:25.722Z,1.97
2018-08-17T16:44:54.399Z,1.87
2018-08-17T16:47:22.452Z,2.00
2018-08-17T16:49:50.632Z,2.20
2018-08-17T16:52:18.731Z,2.10
2018-08-17T16:54:46.822Z,2.00
2018-08-17T16:57:14.948Z,2.30
2018-08-17T16:59:43.068Z,2.13
2018-08-17T17:02:11.200Z,1.77
2018-08-17T17:04:41.052Z,1.80
2018-08-17T17:07:09.293Z,2.10
2018-08-17T17:09:37.402Z,2.00
2018-08-17T17:12:10.062Z,1.73
2018-08-17T17:14:38.177Z,1.90
2018-08-17T17:17:06.284Z,2.00
2018-08-17T17:19:34.503Z,2.00
2018-08-17T17:22:02.644Z,2.20
2018-08-17T17:24:30.802Z,2.33
2018-08-17T17:26:58.939Z,2.27
2018-08-17T17:29:29.150Z,1.90
2018-08-17T17:31:57.322Z,2.27
2018-08-17T17:34:25.567Z,2.30
2018-08-17T17:36:53.743Z,2.60
2018-08-17T17:39:21.908Z,3.10
2018-08-17T17:41:50.104Z,3.93
2018-08-17T17:44:18.243Z,3.30
2018-08-17T17:46:46.347Z,3.77
2018-08-17T17:49:14.609Z,2.73
2018-08-17T17:51:42.770Z,2.70
2018-08-17T17:54:16.642Z,2.80
2018-08-17T17:56:45.448Z,2.80
2018-08-17T17:59:15.253Z,2.60
2018-08-17T18:01:43.392Z,2.73
2018-08-17T18:04:11.542Z,2.93
2018-08-17T18:06:39.704Z,2.30
2018-08-17T18:09:07.842Z,2.40
2018-08-17T18:11:35.954Z,2.60
2018-08-17T18:14:04.315Z,2.20
2018-08-17T18:16:32.411Z,1.83
2018-08-17T18:19:00.580Z,2.33
2018-08-17T18:21:29.494Z,2.33
2018-08-17T18:24:02.718Z,2.67
2018-08-17T18:26:30.836Z,2.30
2018-08-17T18:28:58.989Z,2.47
2018-08-17T18:31:27.166Z,2.70
2018-08-17T18:33:55.344Z,2.33
2018-08-17T18:36:23.498Z,2.63
2018-08-17T18:38:51.650Z,2.60
2018-08-17T18:41:19.766Z,2.57
2018-08-17T18:43:47.900Z,2.77
2018-08-17T18:46:16.039Z,2.80
2018-08-17T18:48:44.193Z,2.50
2018-08-17T18:51:12.273Z,2.77
2018-08-17T18:53:40.856Z,2.63
2018-08-17T18:56:09.028Z,2.77
2018-08-17T18:58:37.218Z,2.60
2018-08-17T19:01:05.380Z,2.80
2018-08-17T19:03:33.571Z,2.80
2018-08-17T19:06:01.724Z,2.67
2018-08-17T19:08:29.831Z,2.60
2018-08-17T19:10:57.965Z,2.63
2018-08-17T19:13:26.101Z,2.30
2018-08-17T19:15:54.650Z,2.60
2018-08-17T19:18:23.398Z,2.70
2018-08-17T19:20:51.560Z,2.97
2018-08-17T19:23:19.697Z,3.07
2018-08-17T19:25:48.937Z,3.20
2018-08-17T19:28:17.064Z,2.60
2018-08-17T19:30:45.156Z,2.60
2018-08-17T19:33:13.392Z,2.60
2018-08-17T19:35:44.935Z,2.70
2018-08-17T19:38:13.062Z,3.17
2018-08-17T19:40:41.283Z,3.30
2018-08-17T19:43:09.388Z,3.10
2018-08-17T19:45:37.582Z,3.40
2018-08-17T19:48:05.736Z,3.60
2018-08-17T19:50:34.168Z,3.30
2018-08-17T19:53:02.346Z,2.90
2018-08-17T19:55:30.516Z,3.30
2018-08-17T19:57:58.693Z,3.20
2018-08-17T20:00:26.876Z,3.30
2018-08-17T20:02:55.321Z,3.10
2018-08-17T20:05:23.491Z,2.97
2018-08-17T20:07:51.694Z,3.07
2018-08-17T20:10:19.916Z,3.10
2018-08-17T20:12:48.059Z,3.10
2018-08-17T20:15:16.261Z,3.13
2018-08-17T20:17:47.543Z,3.10
2018-08-17T20:20:15.751Z,2.90
2018-08-17T20:22:43.915Z,3.30
2018-08-17T20:25:12.857Z,3.67
2018-08-17T20:27:41.081Z,3.27
2018-08-17T20:30:16.774Z,3.40
2018-08-17T20:32:45.323Z,3.10
2018-08-17T20:35:13.515Z,3.20
2018-08-17T20:37:41.868Z,3.27
2018-08-17T20:40:10.000Z,3.57
2018-08-17T20:42:38.134Z,3.10
2018-08-17T20:45:07.181Z,3.00
2018-08-17T20:47:35.998Z,3.27
2018-08-17T20:50:06.485Z,3.07
2018-08-17T20:52:35.012Z,2.87
2018-08-17T20:55:03.298Z,2.77
2018-08-17T20:57:31.338Z,2.93
2018-08-17T20:59:59.434Z,3.07
2018-08-17T21:02:27.569Z,2.47
2018-08-17T21:04:55.678Z,3.00
2018-08-17T21:07:23.855Z,2.53
2018-08-17T21:09:52.014Z,2.40
2018-08-17T21:12:20.168Z,2.50
2018-08-17T21:14:48.308Z,2.83
2018-08-17T21:17:16.475Z,2.83
2018-08-17T21:19:44.596Z,2.60
2018-08-17T21:22:12.694Z,2.67
2018-08-17T21:24:40.830Z,2.87
2018-08-17T21:27:09.061Z,2.40
2018-08-17T21:29:37.196Z,2.77
2018-08-17T21:32:05.262Z,2.90
2018-08-17T21:34:33.414Z,2.90
2018-08-17T21:37:01.557Z,2.53
2018-08-17T21:39:29.700Z,2.40
2018-08-17T21:41:57.915Z,2.50
2018-08-17T21:44:26.071Z,2.50
2018-08-17T21:46:59.542Z,2.47
2018-08-17T21:49:27.680Z,2.77
2018-08-17T21:51:58.165Z,2.73
2018-08-17T21:54:26.367Z,2.53
2018-08-17T21:56:54.857Z,2.60
2018-08-17T21:59:22.881Z,2.60
2018-08-17T22:01:51.155Z,2.37
2018-08-17T22:04:19.299Z,2.83
2018-08-17T22:06:47.453Z,2.80
2018-08-17T22:09:20.099Z,3.07
2018-08-17T22:11:48.297Z,3.13
2018-08-17T22:14:16.419Z,3.37
2018-08-17T22:16:44.597Z,3.23
2018-08-17T22:19:21.459Z,3.13
2018-08-17T22:21:49.604Z,2.93
2018-08-17T22:24:17.748Z,3.03
2018-08-17T22:26:45.957Z,2.57
2018-08-17T22:29:14.155Z,2.63
2018-08-17T22:31:42.594Z,2.90
2018-08-17T22:34:10.710Z,3.03
2018-08-17T22:36:38.851Z,2.90
2018-08-17T22:39:07.104Z,2.80
2018-08-17T22:41:35.306Z,3.00
2018-08-17T22:44:08.698Z,3.40
2018-08-17T22:46:36.874Z,2.70
2018-08-17T22:49:05.100Z,2.70
2018-08-17T22:51:33.266Z,2.80
2018-08-17T22:54:01.401Z,2.70
2018-08-17T22:56:29.582Z,2.50
2018-08-17T22:58:57.710Z,2.37
2018-08-17T23:01:25.807Z,2.70
2018-08-17T23:03:55.744Z,2.60
2018-08-17T23:06:25.579Z,2.70
2018-08-17T23:08:53.775Z,2.37
2018-08-17T23:11:28.842Z,2.27
2018-08-17T23:13:59.711Z,2.60
2018-08-17T23:16:27.894Z,2.73
2018-08-17T23:18:56.037Z,2.80
2018-08-17T23:21:24.208Z,2.53
2018-08-17T23:23:52.419Z,2.60
2018-08-17T23:26:20.627Z,2.40
2018-08-17T23:28:48.768Z,2.67
2018-08-17T23:31:16.939Z,2.27
2018-08-17T23:33:45.104Z,2.80
2018-08-17T23:36:13.295Z,2.87
2018-08-17T23:38:41.466Z,2.87
2018-08-17T23:41:09.567Z,2.80
2018-08-17T23:43:37.730Z,2.80
2018-08-17T23:46:05.899Z,2.20
2018-08-17T23:48:34.035Z,2.83
2018-08-17T23:51:02.169Z,2.80
2018-08-17T23:53:30.359Z,2.80
2018-08-17T23:55:58.553Z,2.60
2018-08-17T23:58:26.693Z,2.60
